sensor_id;sensor_type;location;lat;lon;timestamp;pressure;altitude;pressure_sealevel;temperature;humidity
23899;BME280;20544;50.018;20.010;2024-01-15T00:02:24;97035.15;;;1.02;100.00
23899;BME280;20544;50.018;20.010;2024-01-15T00:05:42;97027.15;;;1.03;100.00
23899;BME280;20544;50.018;20.010;2024-01-15T00:08:59;97019.48;;;1.02;100.00
23899;BME280;20544;50.018;20.010;2024-01-15T00:12:19;97012.13;;;0.97;100.00
23899;BME280;20544;50.018;20.010;2024-01-15T00:15:37;97018.51;;;1.03;100.00
23899;BME280;20544;50.018;20.010;2024-01-15T00:18:54;97009.53;;;1.05;100.00
23899;BME280;20544;50.018;20.010;2024-01-15T00:22:12;96998.42;;;1.03;100.00
23899;BME280;20544;50.018;20.010;2024-01-15T00:25:34;96991.73;;;1.01;100.00
23899;BME280;20544;50.018;20.010;2024-01-15T00:28:52;96991.91;;;1.07;100.00
23899;BME280;20544;50.018;20.010;2024-01-15T00:32:09;96990.11;;;1.08;100.00
23899;BME280;20544;50.018;20.010;2024-01-15T00:35:32;96992.55;;;1.09;100.00
23899;BME280;20544;50.018;20.010;2024-01-15T00:38:52;96986.83;;;1.06;100.00
23899;BME280;20544;50.018;20.010;2024-01-15T00:42:10;96987.00;;;1.12;100.00
23899;BME280;20544;50.018;20.010;2024-01-15T00:45:28;96987.18;;;1.11;100.00
23899;BME280;20544;50.018;20.010;2024-01-15T00:48:46;96977.05;;;1.08;100.00
23899;BME280;20544;50.018;20.010;2024-01-15T00:52:04;96979.34;;;1.11;100.00
23899;BME280;20544;50.018;20.010;2024-01-15T00:55:22;96974.27;;;1.18;100.00
23899;BME280;20544;50.018;20.010;2024-01-15T00:58:40;96970.19;;;1.15;100.00
23899;BME280;20544;50.018;20.010;2024-01-15T01:01:58;96973.43;;;1.17;100.00
23899;BME280;20544;50.018;20.010;2024-01-15T01:05:16;96970.02;;;1.17;100.00
23899;BME280;20544;50.018;20.010;2024-01-15T01:08:34;96963.81;;;1.18;100.00
23899;BME280;20544;50.018;20.010;2024-01-15T01:11:52;96970.67;;;1.19;100.00
23899;BME280;20544;50.018;20.010;2024-01-15T01:15:10;96967.40;;;1.25;100.00
23899;BME280;20544;50.018;20.010;2024-01-15T01:18:28;96956.47;;;1.21;100.00
23899;BME280;20544;50.018;20.010;2024-01-15T01:21:47;96953.02;;;1.21;100.00
23899;BME280;20544;50.018;20.010;2024-01-15T01:25:07;96953.38;;;1.18;100.00
23899;BME280;20544;50.018;20.010;2024-01-15T01:28:25;96942.75;;;1.19;100.00
23899;BME280;20544;50.018;20.010;2024-01-15T01:31:46;96942.78;;;1.11;100.00
23899;BME280;20544;50.018;20.010;2024-01-15T01:35:04;96942.75;;;1.19;100.00
23899;BME280;20544;50.018;20.010;2024-01-15T01:38:22;96935.41;;;1.15;100.00
23899;BME280;20544;50.018;20.010;2024-01-15T01:41:40;96921.72;;;1.12;100.00
23899;BME280;20544;50.018;20.010;2024-01-15T01:44:58;96926.42;;;1.17;100.00
23899;BME280;20544;50.018;20.010;2024-01-15T01:48:19;96917.13;;;1.15;100.00
23899;BME280;20544;50.018;20.010;2024-01-15T01:51:37;96904.73;;;1.17;100.00
23899;BME280;20544;50.018;20.010;2024-01-15T01:54:55;96900.66;;;1.14;100.00
23899;BME280;20544;50.018;20.010;2024-01-15T01:58:14;96896.09;;;1.16;100.00
23899;BME280;20544;50.018;20.010;2024-01-15T02:01:35;96885.30;;;1.19;100.00
23899;BME280;20544;50.018;20.010;2024-01-15T02:04:54;96887.78;;;1.12;100.00
23899;BME280;20544;50.018;20.010;2024-01-15T02:08:12;96876.35;;;1.13;100.00
23899;BME280;20544;50.018;20.010;2024-01-15T02:11:30;96874.06;;;1.10;100.00
23899;BME280;20544;50.018;20.010;2024-01-15T02:14:48;96872.73;;;1.15;100.00
23899;BME280;20544;50.018;20.010;2024-01-15T02:18:07;96877.95;;;1.15;100.00
23899;BME280;20544;50.018;20.010;2024-01-15T02:21:25;96867.69;;;1.13;100.00
23899;BME280;20544;50.018;20.010;2024-01-15T02:24:42;96863.30;;;1.13;100.00
23899;BME280;20544;50.018;20.010;2024-01-15T02:28:00;96865.25;;;1.11;100.00
23899;BME280;20544;50.018;20.010;2024-01-15T02:31:18;96859.05;;;1.12;100.00
23899;BME280;20544;50.018;20.010;2024-01-15T02:34:36;96856.62;;;1.11;100.00
23899;BME280;20544;50.018;20.010;2024-01-15T02:37:54;96840.95;;;1.11;100.00
23899;BME280;20544;50.018;20.010;2024-01-15T02:41:13;96847.95;;;1.10;100.00
23899;BME280;20544;50.018;20.010;2024-01-15T02:44:30;96837.68;;;1.09;100.00
23899;BME280;20544;50.018;20.010;2024-01-15T02:47:48;96841.92;;;1.10;100.00
23899;BME280;20544;50.018;20.010;2024-01-15T02:51:06;96836.70;;;1.10;100.00
23899;BME280;20544;50.018;20.010;2024-01-15T02:54:23;96835.55;;;1.12;100.00
23899;BME280;20544;50.018;20.010;2024-01-15T02:57:41;96832.11;;;1.12;100.00
23899;BME280;20544;50.018;20.010;2024-01-15T03:00:59;96822.99;;;1.08;100.00
23899;BME280;20544;50.018;20.010;2024-01-15T03:04:16;96810.91;;;1.07;100.00
23899;BME280;20544;50.018;20.010;2024-01-15T03:07:34;96810.73;;;1.08;100.00
23899;BME280;20544;50.018;20.010;2024-01-15T03:10:52;96807.02;;;1.03;100.00
23899;BME280;20544;50.018;20.010;2024-01-15T03:14:09;96801.63;;;1.04;100.00
23899;BME280;20544;50.018;20.010;2024-01-15T03:17:27;96797.06;;;1.06;100.00
23899;BME280;20544;50.018;20.010;2024-01-15T03:20:44;96799.99;;;1.03;100.00
23899;BME280;20544;50.018;20.010;2024-01-15T03:24:02;96796.08;;;1.07;100.00
23899;BME280;20544;50.018;20.010;2024-01-15T03:27:20;96792.02;;;1.05;100.00
23899;BME280;20544;50.018;20.010;2024-01-15T03:30:38;96800.97;;;1.02;100.00
23899;BME280;20544;50.018;20.010;2024-01-15T03:33:55;96800.67;;;0.97;100.00
23899;BME280;20544;50.018;20.010;2024-01-15T03:37:13;96797.08;;;0.98;100.00
23899;BME280;20544;50.018;20.010;2024-01-15T03:40:31;96798.06;;;0.97;100.00
23899;BME280;20544;50.018;20.010;2024-01-15T03:43:49;96792.69;;;0.99;100.00
23899;BME280;20544;50.018;20.010;2024-01-15T03:47:07;96773.58;;;0.98;100.00
23899;BME280;20544;50.018;20.010;2024-01-15T03:50:24;96763.02;;;0.91;100.00
23899;BME280;20544;50.018;20.010;2024-01-15T03:53:42;96767.08;;;0.94;100.00
23899;BME280;20544;50.018;20.010;2024-01-15T03:57:00;96763.64;;;0.93;100.00
23899;BME280;20544;50.018;20.010;2024-01-15T04:00:18;96764.30;;;0.95;100.00
23899;BME280;20544;50.018;20.010;2024-01-15T04:03:36;96757.63;;;0.93;100.00
23899;BME280;20544;50.018;20.010;2024-01-15T04:06:54;96760.41;;;0.91;100.00
23899;BME280;20544;50.018;20.010;2024-01-15T04:10:12;96751.59;;;0.92;100.00
23899;BME280;20544;50.018;20.010;2024-01-15T04:13:33;96744.92;;;0.90;100.00
23899;BME280;20544;50.018;20.010;2024-01-15T04:16:51;96740.50;;;0.90;100.00
23899;BME280;20544;50.018;20.010;2024-01-15T04:20:10;96734.78;;;0.95;100.00
23899;BME280;20544;50.018;20.010;2024-01-15T04:23:30;96726.95;;;0.95;100.00
23899;BME280;20544;50.018;20.010;2024-01-15T04:26:47;96716.66;;;0.93;100.00
23899;BME280;20544;50.018;20.010;2024-01-15T04:30:06;96723.69;;;0.93;100.00
23899;BME280;20544;50.018;20.010;2024-01-15T04:33:25;96726.30;;;0.93;100.00
23899;BME280;20544;50.018;20.010;2024-01-15T04:36:44;96722.88;;;0.92;100.00
23899;BME280;20544;50.018;20.010;2024-01-15T04:40:01;96721.73;;;0.95;100.00
23899;BME280;20544;50.018;20.010;2024-01-15T04:43:20;96722.05;;;0.92;100.00
23899;BME280;20544;50.018;20.010;2024-01-15T04:46:38;96711.44;;;0.93;100.00
23899;BME280;20544;50.018;20.010;2024-01-15T04:49:55;96717.66;;;0.92;100.00
23899;BME280;20544;50.018;20.010;2024-01-15T04:53:12;96717.48;;;0.94;100.00
23899;BME280;20544;50.018;20.010;2024-01-15T04:56:30;96703.09;;;0.98;100.00
23899;BME280;20544;50.018;20.010;2024-01-15T04:59:47;96715.53;;;0.96;100.00
23899;BME280;20544;50.018;20.010;2024-01-15T05:03:05;96716.63;;;1.02;100.00
23899;BME280;20544;50.018;20.010;2024-01-15T05:06:23;96713.36;;;1.00;100.00
23899;BME280;20544;50.018;20.010;2024-01-15T05:09:41;96696.90;;;0.99;100.00
23899;BME280;20544;50.018;20.010;2024-01-15T05:12:58;96703.39;;;1.03;100.00
23899;BME280;20544;50.018;20.010;2024-01-15T05:16:16;96705.02;;;1.04;100.00
23899;BME280;20544;50.018;20.010;2024-01-15T05:19:34;96699.98;;;1.03;100.00
23899;BME280;20544;50.018;20.010;2024-01-15T05:22:52;96702.12;;;0.99;100.00
23899;BME280;20544;50.018;20.010;2024-01-15T05:26:09;96701.61;;;1.04;100.00
23899;BME280;20544;50.018;20.010;2024-01-15T05:29:27;96698.02;;;1.05;100.00
23899;BME280;20544;50.018;20.010;2024-01-15T05:32:45;96695.23;;;1.06;100.00
23899;BME280;20544;50.018;20.010;2024-01-15T05:36:05;96708.47;;;1.05;100.00
23899;BME280;20544;50.018;20.010;2024-01-15T05:39:25;96701.76;;;1.02;100.00
23899;BME280;20544;50.018;20.010;2024-01-15T05:42:43;96713.51;;;1.06;100.00
23899;BME280;20544;50.018;20.010;2024-01-15T05:46:01;96708.28;;;1.06;100.00
23899;BME280;20544;50.018;20.010;2024-01-15T05:49:19;96698.82;;;1.05;100.00
23899;BME280;20544;50.018;20.010;2024-01-15T05:52:37;96691.31;;;1.02;100.00
23899;BME280;20544;50.018;20.010;2024-01-15T05:55:54;96681.05;;;1.01;100.00
23899;BME280;20544;50.018;20.010;2024-01-15T05:59:12;96686.56;;;1.06;100.00
23899;BME280;20544;50.018;20.010;2024-01-15T06:02:30;96686.75;;;1.04;100.00
23899;BME280;20544;50.018;20.010;2024-01-15T06:05:47;96674.52;;;1.05;100.00
23899;BME280;20544;50.018;20.010;2024-01-15T06:09:05;96690.88;;;0.99;100.00
23899;BME280;20544;50.018;20.010;2024-01-15T06:12:23;96693.13;;;1.02;100.00
23899;BME280;20544;50.018;20.010;2024-01-15T06:15:41;96691.31;;;1.02;100.00
23899;BME280;20544;50.018;20.010;2024-01-15T06:18:59;96687.91;;;1.02;100.00
23899;BME280;20544;50.018;20.010;2024-01-15T06:22:17;96684.50;;;1.01;100.00
23899;BME280;20544;50.018;20.010;2024-01-15T06:25:35;96696.54;;;1.02;100.00
23899;BME280;20544;50.018;20.010;2024-01-15T06:28:53;96701.14;;;1.00;100.00
23899;BME280;20544;50.018;20.010;2024-01-15T06:32:11;96700.78;;;1.03;100.00
23899;BME280;20544;50.018;20.010;2024-01-15T06:35:28;96703.39;;;1.03;100.00
23899;BME280;20544;50.018;20.010;2024-01-15T06:38:46;96700.16;;;1.01;100.00
23899;BME280;20544;50.018;20.010;2024-01-15T06:42:04;96689.72;;;1.01;100.00
23899;BME280;20544;50.018;20.010;2024-01-15T06:45:24;96681.05;;;1.01;100.00
23899;BME280;20544;50.018;20.010;2024-01-15T06:48:42;96678.44;;;1.01;100.00
23899;BME280;20544;50.018;20.010;2024-01-15T06:52:00;96679.27;;;1.01;100.00
23899;BME280;20544;50.018;20.010;2024-01-15T06:55:18;96684.61;;;1.08;100.00
23899;BME280;20544;50.018;20.010;2024-01-15T06:58:36;96694.88;;;1.09;100.00
23899;BME280;20544;50.018;20.010;2024-01-15T07:01:54;96699.11;;;1.10;100.00
23899;BME280;20544;50.018;20.010;2024-01-15T07:05:11;96695.05;;;1.08;100.00
23899;BME280;20544;50.018;20.010;2024-01-15T07:08:29;96696.03;;;1.07;100.00
23899;BME280;20544;50.018;20.010;2024-01-15T07:11:48;96708.58;;;1.11;100.00
23899;BME280;20544;50.018;20.010;2024-01-15T07:15:08;96705.17;;;1.11;100.00
23899;BME280;20544;50.018;20.010;2024-01-15T07:18:26;96707.42;;;1.14;100.00
23899;BME280;20544;50.018;20.010;2024-01-15T07:21:45;96700.23;;;1.16;100.00
23899;BME280;20544;50.018;20.010;2024-01-15T07:25:05;96703.83;;;1.15;100.00
23899;BME280;20544;50.018;20.010;2024-01-15T07:28:23;96712.13;;;1.19;100.00
23899;BME280;20544;50.018;20.010;2024-01-15T07:31:43;96707.06;;;1.17;100.00
23899;BME280;20544;50.018;20.010;2024-01-15T07:35:06;96712.93;;;1.19;100.00
23899;BME280;20544;50.018;20.010;2024-01-15T07:38:24;96719.78;;;1.20;100.00
23899;BME280;20544;50.018;20.010;2024-01-15T07:41:42;96731.00;;;1.29;100.00
23899;BME280;20544;50.018;20.010;2024-01-15T07:45:00;96739.48;;;1.31;100.00
23899;BME280;20544;50.018;20.010;2024-01-15T07:48:18;96742.89;;;1.32;100.00
23899;BME280;20544;50.018;20.010;2024-01-15T07:51:35;96748.95;;;1.32;100.00
23899;BME280;20544;50.018;20.010;2024-01-15T07:54:54;96748.95;;;1.32;100.00
23899;BME280;20544;50.018;20.010;2024-01-15T07:58:14;96741.55;;;1.36;100.00
23899;BME280;20544;50.018;20.010;2024-01-15T08:01:32;96729.50;;;1.35;100.00
23899;BME280;20544;50.018;20.010;2024-01-15T08:04:50;96745.98;;;1.35;100.00
23899;BME280;20544;50.018;20.010;2024-01-15T08:08:10;96740.94;;;1.34;100.00
23899;BME280;20544;50.018;20.010;2024-01-15T08:11:27;96745.47;;;1.40;100.00
23899;BME280;20544;50.018;20.010;2024-01-15T08:14:52;96749.02;;;1.47;100.00
23899;BME280;20544;50.018;20.010;2024-01-15T08:18:10;96738.86;;;1.52;100.00
23899;BME280;20544;50.018;20.010;2024-01-15T08:21:29;96737.62;;;1.63;100.00
23899;BME280;20544;50.018;20.010;2024-01-15T08:24:47;96747.73;;;1.66;100.00
23899;BME280;20544;50.018;20.010;2024-01-15T08:28:07;96770.42;;;1.66;100.00
23899;BME280;20544;50.018;20.010;2024-01-15T08:31:24;96764.40;;;1.65;100.00
23899;BME280;20544;50.018;20.010;2024-01-15T08:34:42;96770.25;;;1.44;100.00
23899;BME280;20544;50.018;20.010;2024-01-15T08:38:02;96756.64;;;1.25;100.00
23899;BME280;20544;50.018;20.010;2024-01-15T08:41:20;96754.33;;;1.31;100.00
23899;BME280;20544;50.018;20.010;2024-01-15T08:44:38;96760.38;;;1.31;100.00
23899;BME280;20544;50.018;20.010;2024-01-15T08:47:57;96754.86;;;1.26;100.00
23899;BME280;20544;50.018;20.010;2024-01-15T08:51:15;96756.31;;;1.28;100.00
23899;BME280;20544;50.018;20.010;2024-01-15T08:54:33;96759.15;;;1.42;100.00
23899;BME280;20544;50.018;20.010;2024-01-15T08:57:51;96759.84;;;1.36;100.00
23899;BME280;20544;50.018;20.010;2024-01-15T09:01:08;96757.01;;;1.45;100.00
23899;BME280;20544;50.018;20.010;2024-01-15T09:04:27;96747.60;;;1.59;100.00
23899;BME280;20544;50.018;20.010;2024-01-15T09:07:44;96761.27;;;1.70;100.00
23899;BME280;20544;50.018;20.010;2024-01-15T09:11:03;96766.78;;;1.75;100.00
23899;BME280;20544;50.018;20.010;2024-01-15T09:14:20;96757.59;;;1.79;100.00
23899;BME280;20544;50.018;20.010;2024-01-15T09:17:41;96771.78;;;1.85;100.00
23899;BME280;20544;50.018;20.010;2024-01-15T09:20:59;96769.86;;;1.78;100.00
23899;BME280;20544;50.018;20.010;2024-01-15T09:24:18;96779.25;;;1.88;100.00
23899;BME280;20544;50.018;20.010;2024-01-15T09:27:38;96777.94;;;1.92;100.00
23899;BME280;20544;50.018;20.010;2024-01-15T09:30:56;96766.19;;;1.88;100.00
23899;BME280;20544;50.018;20.010;2024-01-15T09:34:14;96778.03;;;1.99;100.00
23899;BME280;20544;50.018;20.010;2024-01-15T09:37:33;96772.16;;;1.97;100.00
23899;BME280;20544;50.018;20.010;2024-01-15T09:40:50;96772.16;;;1.97;100.00
23899;BME280;20544;50.018;20.010;2024-01-15T09:44:09;96781.12;;;2.02;100.00
23899;BME280;20544;50.018;20.010;2024-01-15T09:47:28;96782.28;;;2.00;100.00
23899;BME280;20544;50.018;20.010;2024-01-15T09:50:48;96777.33;;;2.05;100.00
23899;BME280;20544;50.018;20.010;2024-01-15T09:54:07;96769.73;;;1.95;100.00
23899;BME280;20544;50.018;20.010;2024-01-15T09:57:27;96783.87;;;1.86;100.00
23899;BME280;20544;50.018;20.010;2024-01-15T10:00:46;96782.10;;;1.78;100.00
23899;BME280;20544;50.018;20.010;2024-01-15T10:04:03;96790.53;;;1.65;100.00
23899;BME280;20544;50.018;20.010;2024-01-15T10:07:21;96787.92;;;1.65;100.00
23899;BME280;20544;50.018;20.010;2024-01-15T10:10:41;96772.06;;;1.67;100.00
23899;BME280;20544;50.018;20.010;2024-01-15T10:13:59;96776.48;;;1.66;100.00
23899;BME280;20544;50.018;20.010;2024-01-15T10:17:17;96768.69;;;1.58;100.00
23899;BME280;20544;50.018;20.010;2024-01-15T10:20:35;96782.41;;;1.60;100.00
23899;BME280;20544;50.018;20.010;2024-01-15T10:23:53;96777.87;;;1.54;100.00
23899;BME280;20544;50.018;20.010;2024-01-15T10:27:12;96772.28;;;1.57;100.00
23899;BME280;20544;50.018;20.010;2024-01-15T10:30:30;96770.68;;;1.56;100.00
23899;BME280;20544;50.018;20.010;2024-01-15T10:33:48;96771.81;;;1.53;100.00
23899;BME280;20544;50.018;20.010;2024-01-15T10:37:19;96757.25;;;1.59;100.00
23899;BME280;20544;50.018;20.010;2024-01-15T10:40:58;96745.82;;;1.60;100.00
23899;BME280;20544;50.018;20.010;2024-01-15T10:44:15;96760.66;;;1.59;100.00
23899;BME280;20544;50.018;20.010;2024-01-15T10:47:34;96763.82;;;1.55;100.00
23899;BME280;20544;50.018;20.010;2024-01-15T10:50:52;96752.49;;;1.63;100.00
23899;BME280;20544;50.018;20.010;2024-01-15T10:57:59;96752.59;;;1.69;100.00
23899;BME280;20544;50.018;20.010;2024-01-15T11:01:18;96747.38;;;1.69;100.00
23899;BME280;20544;50.018;20.010;2024-01-15T11:04:38;96743.95;;;1.69;100.00
23899;BME280;20544;50.018;20.010;2024-01-15T11:07:58;96738.03;;;1.75;100.00
23899;BME280;20544;50.018;20.010;2024-01-15T11:11:17;96743.08;;;1.76;100.00
23899;BME280;20544;50.018;20.010;2024-01-15T11:14:40;96736.06;;;1.77;100.00
23899;BME280;20544;50.018;20.010;2024-01-15T11:18:03;96732.98;;;1.73;100.00
23899;BME280;20544;50.018;20.010;2024-01-15T11:21:29;96748.29;;;2.00;100.00
23899;BME280;20544;50.018;20.010;2024-01-15T11:24:47;96747.45;;;1.99;100.00
23899;BME280;20544;50.018;20.010;2024-01-15T11:28:05;96760.53;;;1.99;100.00
23899;BME280;20544;50.018;20.010;2024-01-15T11:31:27;96743.06;;;2.00;100.00
23899;BME280;20544;50.018;20.010;2024-01-15T11:34:59;96742.94;;;1.93;100.00
23899;BME280;20544;50.018;20.010;2024-01-15T11:38:30;96736.05;;;2.15;100.00
23899;BME280;20544;50.018;20.010;2024-01-15T11:41:47;96732.07;;;2.19;100.00
23899;BME280;20544;50.018;20.010;2024-01-15T11:45:06;96729.58;;;2.26;100.00
23899;BME280;20544;50.018;20.010;2024-01-15T11:48:24;96740.38;;;2.23;100.00
23899;BME280;20544;50.018;20.010;2024-01-15T11:51:45;96745.77;;;2.06;100.00
23899;BME280;20544;50.018;20.010;2024-01-15T11:55:14;96742.17;;;2.07;100.00
23899;BME280;20544;50.018;20.010;2024-01-15T11:58:37;96747.40;;;2.07;100.00
23899;BME280;20544;50.018;20.010;2024-01-15T12:01:57;96753.86;;;1.97;100.00
23899;BME280;20544;50.018;20.010;2024-01-15T12:05:22;96748.41;;;1.83;100.00
23899;BME280;20544;50.018;20.010;2024-01-15T12:08:42;96747.27;;;1.86;100.00
23899;BME280;20544;50.018;20.010;2024-01-15T12:12:03;96737.95;;;1.83;100.00
23899;BME280;20544;50.018;20.010;2024-01-15T12:15:26;96753.63;;;1.83;100.00
23899;BME280;20544;50.018;20.010;2024-01-15T12:18:47;96737.52;;;1.80;100.00
23899;BME280;20544;50.018;20.010;2024-01-15T12:22:05;96741.34;;;1.69;100.00
23899;BME280;20544;50.018;20.010;2024-01-15T12:25:27;96731.22;;;1.66;100.00
23899;BME280;20544;50.018;20.010;2024-01-15T12:28:45;96746.05;;;1.73;100.00
23899;BME280;20544;50.018;20.010;2024-01-15T12:32:07;96734.59;;;1.74;100.00
23899;BME280;20544;50.018;20.010;2024-01-15T12:35:25;96735.60;;;1.73;100.00
23899;BME280;20544;50.018;20.010;2024-01-15T12:38:46;96743.44;;;1.73;100.00
23899;BME280;20544;50.018;20.010;2024-01-15T12:42:09;96744.76;;;1.69;100.00
23899;BME280;20544;50.018;20.010;2024-01-15T12:45:30;96751.52;;;1.64;100.00
23899;BME280;20544;50.018;20.010;2024-01-15T12:48:49;96756.61;;;1.57;100.00
23899;BME280;20544;50.018;20.010;2024-01-15T12:52:09;96756.13;;;1.53;100.00
23899;BME280;20544;50.018;20.010;2024-01-15T12:55:30;96758.52;;;1.63;100.00
23899;BME280;20544;50.018;20.010;2024-01-15T12:58:54;96764.69;;;1.70;100.00
23899;BME280;20544;50.018;20.010;2024-01-15T13:02:13;96752.88;;;1.74;100.00
23899;BME280;20544;50.018;20.010;2024-01-15T13:05:33;96754.23;;;1.70;100.00
23899;BME280;20544;50.018;20.010;2024-01-15T13:08:51;96753.34;;;1.78;100.00
23899;BME280;20544;50.018;20.010;2024-01-15T13:12:12;96745.22;;;1.73;100.00
23899;BME280;20544;50.018;20.010;2024-01-15T13:15:30;96754.80;;;1.81;100.00
23899;BME280;20544;50.018;20.010;2024-01-15T13:18:49;96739.14;;;1.57;100.00
23899;BME280;20544;50.018;20.010;2024-01-15T13:22:07;96737.98;;;1.60;100.00
23899;BME280;20544;50.018;20.010;2024-01-15T13:25:30;96740.00;;;1.73;100.00
23899;BME280;20544;50.018;20.010;2024-01-15T13:28:51;96739.61;;;1.61;100.00
23899;BME280;20544;50.018;20.010;2024-01-15T13:32:09;96738.16;;;1.58;100.00
23899;BME280;20544;50.018;20.010;2024-01-15T13:35:30;96709.15;;;1.68;100.00
23899;BME280;20544;50.018;20.010;2024-01-15T13:38:47;96733.09;;;1.57;100.00
23899;BME280;20544;50.018;20.010;2024-01-15T13:42:05;96731.41;;;1.64;100.00
23899;BME280;20544;50.018;20.010;2024-01-15T13:45:28;96734.72;;;1.58;100.00
23899;BME280;20544;50.018;20.010;2024-01-15T13:48:47;96729.16;;;1.61;100.00
23899;BME280;20544;50.018;20.010;2024-01-15T13:52:06;96738.78;;;1.60;100.00
23899;BME280;20544;50.018;20.010;2024-01-15T13:55:32;96739.25;;;1.64;100.00
23899;BME280;20544;50.018;20.010;2024-01-15T13:58:51;96739.48;;;1.54;100.00
23899;BME280;20544;50.018;20.010;2024-01-15T14:02:11;96739.77;;;1.59;100.00
23899;BME280;20544;50.018;20.010;2024-01-15T14:07:57;96748.55;;;1.43;100.00
23899;BME280;20544;50.018;20.010;2024-01-15T14:11:17;96732.70;;;1.45;100.00
23899;BME280;20544;50.018;20.010;2024-01-15T14:14:35;96733.34;;;1.47;100.00
23899;BME280;20544;50.018;20.010;2024-01-15T14:17:53;96739.88;;;1.43;100.00
23899;BME280;20544;50.018;20.010;2024-01-15T14:21:11;96745.33;;;1.33;100.00
23899;BME280;20544;50.018;20.010;2024-01-15T14:24:29;96749.39;;;1.36;100.00
23899;BME280;20544;50.018;20.010;2024-01-15T14:27:47;96740.28;;;1.32;100.00
23899;BME280;20544;50.018;20.010;2024-01-15T14:31:06;96736.22;;;1.29;100.00
23899;BME280;20544;50.018;20.010;2024-01-15T14:34:24;96748.52;;;1.20;100.00
23899;BME280;20544;50.018;20.010;2024-01-15T14:37:45;96741.84;;;1.18;100.00
23899;BME280;20544;50.018;20.010;2024-01-15T14:41:03;96737.30;;;1.11;100.00
23899;BME280;20544;50.018;20.010;2024-01-15T14:44:21;96740.71;;;1.12;100.00
23899;BME280;20544;50.018;20.010;2024-01-15T14:47:38;96729.28;;;1.13;100.00
23899;BME280;20544;50.018;20.010;2024-01-15T14:50:57;96722.61;;;1.10;100.00
23899;BME280;20544;50.018;20.010;2024-01-15T14:54:19;96730.63;;;1.09;100.00
23899;BME280;20544;50.018;20.010;2024-01-15T14:57:37;96730.16;;;1.05;100.00
23899;BME280;20544;50.018;20.010;2024-01-15T15:00:54;96736.17;;;1.06;100.00
23899;BME280;20544;50.018;20.010;2024-01-15T15:04:12;96741.93;;;1.01;100.00
23899;BME280;20544;50.018;20.010;2024-01-15T15:07:30;96747.16;;;1.01;100.00
23899;BME280;20544;50.018;20.010;2024-01-15T15:10:50;96749.77;;;1.01;100.00
23899;BME280;20544;50.018;20.010;2024-01-15T15:14:08;96736.23;;;0.98;100.00
23899;BME280;20544;50.018;20.010;2024-01-15T15:17:26;96747.00;;;0.94;100.00
23899;BME280;20544;50.018;20.010;2024-01-15T15:20:44;96735.78;;;0.86;100.00
23899;BME280;20544;50.018;20.010;2024-01-15T15:24:01;96743.91;;;0.91;100.00
23899;BME280;20544;50.018;20.010;2024-01-15T15:27:19;96737.89;;;0.90;100.00
23899;BME280;20544;50.018;20.010;2024-01-15T15:30:42;96750.59;;;0.93;100.00
23899;BME280;20544;50.018;20.010;2024-01-15T15:34:02;96738.38;;;0.94;100.00
23899;BME280;20544;50.018;20.010;2024-01-15T15:37:19;96750.59;;;0.93;100.00
23899;BME280;20544;50.018;20.010;2024-01-15T15:40:38;96748.66;;;0.87;100.00
23899;BME280;20544;50.018;20.010;2024-01-15T15:44:00;96735.46;;;0.89;100.00
23899;BME280;20544;50.018;20.010;2024-01-15T15:47:20;96734.16;;;0.85;100.00
23899;BME280;20544;50.018;20.010;2024-01-15T15:50:41;96752.75;;;0.90;100.00
23899;BME280;20544;50.018;20.010;2024-01-15T15:54:00;96745.42;;;0.85;100.00
23899;BME280;20544;50.018;20.010;2024-01-15T15:57:18;96746.88;;;0.88;100.00
23899;BME280;20544;50.018;20.010;2024-01-15T16:00:36;96747.86;;;0.87;100.00
23899;BME280;20544;50.018;20.010;2024-01-15T16:03:54;96761.89;;;0.86;100.00
23899;BME280;20544;50.018;20.010;2024-01-15T16:07:18;96765.34;;;0.78;100.00
23899;BME280;20544;50.018;20.010;2024-01-15T16:10:36;96759.95;;;0.79;100.00
23899;BME280;20544;50.018;20.010;2024-01-15T16:13:57;96760.61;;;0.82;100.00
23899;BME280;20544;50.018;20.010;2024-01-15T16:17:18;96761.58;;;0.80;100.00
23899;BME280;20544;50.018;20.010;2024-01-15T16:20:37;96761.60;;;0.72;100.00
23899;BME280;20544;50.018;20.010;2024-01-15T16:23:57;96760.32;;;0.68;100.00
23899;BME280;20544;50.018;20.010;2024-01-15T16:27:16;96769.48;;;0.64;100.00
23899;BME280;20544;50.018;20.010;2024-01-15T16:30:34;96759.70;;;0.66;100.00
23899;BME280;20544;50.018;20.010;2024-01-15T16:33:56;96761.30;;;0.67;100.00
23899;BME280;20544;50.018;20.010;2024-01-15T16:37:15;96761.45;;;0.74;100.00
23899;BME280;20544;50.018;20.010;2024-01-15T16:40:33;96767.78;;;0.79;100.00
23899;BME280;20544;50.018;20.010;2024-01-15T16:43:52;96760.78;;;0.80;100.00
23899;BME280;20544;50.018;20.010;2024-01-15T16:47:10;96769.59;;;0.79;100.00
23899;BME280;20544;50.018;20.010;2024-01-15T16:50:28;96772.20;;;0.79;100.00
23899;BME280;20544;50.018;20.010;2024-01-15T16:53:55;96781.48;;;0.82;100.00
23899;BME280;20544;50.018;20.010;2024-01-15T16:57:12;96787.69;;;0.80;100.00
23899;BME280;20544;50.018;20.010;2024-01-15T17:00:32;96783.92;;;0.83;100.00
23899;BME280;20544;50.018;20.010;2024-01-15T17:03:50;96777.91;;;0.74;100.00
23899;BME280;20544;50.018;20.010;2024-01-15T17:07:08;96797.32;;;0.80;100.00
23899;BME280;20544;50.018;20.010;2024-01-15T17:10:32;96791.13;;;0.81;100.00
23899;BME280;20544;50.018;20.010;2024-01-15T17:14:10;96806.78;;;0.81;100.00
23899;BME280;20544;50.018;20.010;2024-01-15T17:17:49;96798.62;;;0.76;100.00
23899;BME280;20544;50.018;20.010;2024-01-15T17:21:43;96794.71;;;0.80;100.00
23899;BME280;20544;50.018;20.010;2024-01-15T17:25:13;96796.66;;;0.78;100.00
23899;BME280;20544;50.018;20.010;2024-01-15T17:28:31;96794.24;;;0.68;100.00